KNQA

Millington Regional Jetport Airport

Millington, Tennessee, USA
METAR KNQA 181950Z 09005KT 10SM OVC013 10/07 A3000
Observed Flight Rules
Jan-18 @ 19:50 UTC (57 minutes ago) Marginal Visual Flight Rules
Wind Visibility Clouds
90° at 5 knots 10 miles
  • Overcast at 1,300' AGL
Temperatures Readings
Current 10°C / 50°F
Dewpoint 7°C / 45°F
Humidity 82%
Altimeter 30" Hg
Pressure 1015.92 hPa
Elevation 86
METAR KNQA 181950Z 09005KT 10SM OVC013 10/07 A3000
Observed Flight Rules
Jan-18 @ 19:50 UTC
(57 minutes ago)
MVFR
Wind Visibility
90° at 5 knots 10 miles
Clouds
  • Overcast at 1,300' AGL
Temperature Dewpoint
10°C / 50°F 7°C / 45°F
Humidity Altimeter Pressure
82% 30" Hg 1015.92 hPa